sensor_id;sensor_type;location;lat;lon;timestamp;P1;durP1;ratioP1;P2;durP2;ratioP2
69203;SDS011;56317;27.658;85.326;2023-02-28T00:00:44;364.98;;;200.32;;
69203;SDS011;56317;27.658;85.326;2023-02-28T00:03:11;361.05;;;200.68;;
69203;SDS011;56317;27.658;85.326;2023-02-28T00:05:38;363.83;;;196.40;;
69203;SDS011;56317;27.658;85.326;2023-02-28T00:08:07;348.33;;;190.77;;
69203;SDS011;56317;27.658;85.326;2023-02-28T00:10:34;353.80;;;194.55;;
69203;SDS011;56317;27.658;85.326;2023-02-28T00:13:03;377.52;;;201.10;;
69203;SDS011;56317;27.658;85.326;2023-02-28T00:15:32;369.98;;;199.98;;
69203;SDS011;56317;27.658;85.326;2023-02-28T00:17:59;358.80;;;198.60;;
69203;SDS011;56317;27.658;85.326;2023-02-28T00:20:27;363.88;;;193.40;;
69203;SDS011;56317;27.658;85.326;2023-02-28T00:22:55;347.23;;;192.23;;
69203;SDS011;56317;27.658;85.326;2023-02-28T00:25:23;346.38;;;196.82;;
69203;SDS011;56317;27.658;85.326;2023-02-28T00:27:51;388.45;;;211.25;;
69203;SDS011;56317;27.658;85.326;2023-02-28T00:30:19;392.05;;;215.63;;
69203;SDS011;56317;27.658;85.326;2023-02-28T00:32:48;449.33;;;234.70;;
69203;SDS011;56317;27.658;85.326;2023-02-28T00:35:16;438.00;;;238.38;;
69203;SDS011;56317;27.658;85.326;2023-02-28T00:37:44;469.50;;;241.98;;
69203;SDS011;56317;27.658;85.326;2023-02-28T00:40:11;433.73;;;242.45;;
69203;SDS011;56317;27.658;85.326;2023-02-28T00:42:39;458.83;;;251.80;;
69203;SDS011;56317;27.658;85.326;2023-02-28T00:45:06;439.23;;;245.13;;
69203;SDS011;56317;27.658;85.326;2023-02-28T00:47:34;424.58;;;236.07;;
69203;SDS011;56317;27.658;85.326;2023-02-28T00:50:01;436.50;;;242.05;;
69203;SDS011;56317;27.658;85.326;2023-02-28T00:52:29;461.58;;;254.93;;
69203;SDS011;56317;27.658;85.326;2023-02-28T00:54:56;432.48;;;239.40;;
69203;SDS011;56317;27.658;85.326;2023-02-28T00:57:24;429.60;;;238.07;;
69203;SDS011;56317;27.658;85.326;2023-02-28T00:59:51;528.72;;;285.08;;
69203;SDS011;56317;27.658;85.326;2023-02-28T01:02:22;477.73;;;264.33;;
69203;SDS011;56317;27.658;85.326;2023-02-28T01:04:49;470.60;;;260.65;;
69203;SDS011;56317;27.658;85.326;2023-02-28T01:07:16;465.33;;;259.02;;
69203;SDS011;56317;27.658;85.326;2023-02-28T01:09:43;441.63;;;254.98;;
69203;SDS011;56317;27.658;85.326;2023-02-28T01:12:10;472.00;;;254.95;;
69203;SDS011;56317;27.658;85.326;2023-02-28T01:14:38;452.45;;;256.75;;
69203;SDS011;56317;27.658;85.326;2023-02-28T01:17:05;451.55;;;259.42;;
69203;SDS011;56317;27.658;85.326;2023-02-28T01:19:32;445.52;;;256.65;;
69203;SDS011;56317;27.658;85.326;2023-02-28T01:22:03;438.85;;;255.40;;
69203;SDS011;56317;27.658;85.326;2023-02-28T01:26:58;423.08;;;233.18;;
69203;SDS011;56317;27.658;85.326;2023-02-28T01:29:25;439.20;;;250.05;;
69203;SDS011;56317;27.658;85.326;2023-02-28T01:31:52;423.33;;;240.93;;
69203;SDS011;56317;27.658;85.326;2023-02-28T01:34:19;415.90;;;260.17;;
69203;SDS011;56317;27.658;85.326;2023-02-28T01:36:47;374.10;;;222.48;;
69203;SDS011;56317;27.658;85.326;2023-02-28T01:39:14;371.30;;;221.88;;
69203;SDS011;56317;27.658;85.326;2023-02-28T01:41:41;369.00;;;220.60;;
69203;SDS011;56317;27.658;85.326;2023-02-28T01:47:20;329.60;;;200.80;;
69203;SDS011;56317;27.658;85.326;2023-02-28T01:49:48;324.05;;;196.57;;
69203;SDS011;56317;27.658;85.326;2023-02-28T01:52:17;325.13;;;202.45;;
69203;SDS011;56317;27.658;85.326;2023-02-28T01:54:45;339.73;;;197.15;;
69203;SDS011;56317;27.658;85.326;2023-02-28T01:57:26;324.30;;;191.82;;
69203;SDS011;56317;27.658;85.326;2023-02-28T01:59:57;340.05;;;202.93;;
69203;SDS011;56317;27.658;85.326;2023-02-28T02:02:34;324.88;;;196.63;;
69203;SDS011;56317;27.658;85.326;2023-02-28T02:05:07;300.58;;;187.52;;
69203;SDS011;56317;27.658;85.326;2023-02-28T02:07:42;315.55;;;189.35;;
69203;SDS011;56317;27.658;85.326;2023-02-28T02:17:45;273.80;;;165.20;;
69203;SDS011;56317;27.658;85.326;2023-02-28T02:25:58;298.15;;;194.45;;
69203;SDS011;56317;27.658;85.326;2023-02-28T02:28:56;288.67;;;184.75;;
69203;SDS011;56317;27.658;85.326;2023-02-28T02:40:22;256.38;;;159.50;;
69203;SDS011;56317;27.658;85.326;2023-02-28T02:42:58;269.75;;;155.80;;
69203;SDS011;56317;27.658;85.326;2023-02-28T02:45:36;291.87;;;172.37;;
69203;SDS011;56317;27.658;85.326;2023-02-28T02:48:21;271.02;;;175.23;;
69203;SDS011;56317;27.658;85.326;2023-02-28T02:50:56;280.35;;;176.60;;
69203;SDS011;56317;27.658;85.326;2023-02-28T02:53:34;288.45;;;183.32;;
69203;SDS011;56317;27.658;85.326;2023-02-28T02:56:27;259.40;;;173.80;;
69203;SDS011;56317;27.658;85.326;2023-02-28T02:58:59;207.70;;;130.60;;
69203;SDS011;56317;27.658;85.326;2023-02-28T03:01:34;256.98;;;163.98;;
69203;SDS011;56317;27.658;85.326;2023-02-28T03:04:13;253.05;;;165.57;;
69203;SDS011;56317;27.658;85.326;2023-02-28T03:06:45;251.52;;;156.95;;
69203;SDS011;56317;27.658;85.326;2023-02-28T03:09:12;230.75;;;148.70;;
69203;SDS011;56317;27.658;85.326;2023-02-28T03:11:39;235.57;;;154.00;;
69203;SDS011;56317;27.658;85.326;2023-02-28T03:31:26;238.65;;;158.43;;
69203;SDS011;56317;27.658;85.326;2023-02-28T03:36:41;255.32;;;159.65;;
69203;SDS011;56317;27.658;85.326;2023-02-28T03:39:25;242.43;;;149.18;;
69203;SDS011;56317;27.658;85.326;2023-02-28T03:42:26;233.05;;;149.05;;
69203;SDS011;56317;27.658;85.326;2023-02-28T03:44:55;238.15;;;150.45;;
69203;SDS011;56317;27.658;85.326;2023-02-28T03:47:38;224.70;;;144.10;;
69203;SDS011;56317;27.658;85.326;2023-02-28T03:50:19;234.55;;;147.75;;
69203;SDS011;56317;27.658;85.326;2023-02-28T03:53:14;229.48;;;152.02;;
69203;SDS011;56317;27.658;85.326;2023-02-28T03:55:49;230.07;;;141.55;;
69203;SDS011;56317;27.658;85.326;2023-02-28T04:04:24;226.95;;;145.75;;
69203;SDS011;56317;27.658;85.326;2023-02-28T04:07:01;225.20;;;139.98;;
69203;SDS011;56317;27.658;85.326;2023-02-28T04:09:37;234.77;;;146.50;;
69203;SDS011;56317;27.658;85.326;2023-02-28T04:12:05;204.55;;;132.48;;
69203;SDS011;56317;27.658;85.326;2023-02-28T04:14:33;205.65;;;131.90;;
69203;SDS011;56317;27.658;85.326;2023-02-28T04:17:01;228.63;;;141.52;;
69203;SDS011;56317;27.658;85.326;2023-02-28T04:19:28;216.27;;;139.93;;
69203;SDS011;56317;27.658;85.326;2023-02-28T04:21:56;211.38;;;136.63;;
69203;SDS011;56317;27.658;85.326;2023-02-28T04:24:24;229.52;;;144.60;;
69203;SDS011;56317;27.658;85.326;2023-02-28T04:26:54;225.10;;;143.63;;
69203;SDS011;56317;27.658;85.326;2023-02-28T04:29:24;212.27;;;138.95;;
69203;SDS011;56317;27.658;85.326;2023-02-28T04:31:53;214.00;;;140.68;;
69203;SDS011;56317;27.658;85.326;2023-02-28T04:34:28;204.43;;;137.15;;
69203;SDS011;56317;27.658;85.326;2023-02-28T04:36:57;183.75;;;119.78;;
69203;SDS011;56317;27.658;85.326;2023-02-28T04:39:25;145.02;;;98.30;;
69203;SDS011;56317;27.658;85.326;2023-02-28T04:41:53;133.63;;;90.72;;
69203;SDS011;56317;27.658;85.326;2023-02-28T04:44:20;168.27;;;113.60;;
69203;SDS011;56317;27.658;85.326;2023-02-28T04:46:48;174.00;;;115.07;;
69203;SDS011;56317;27.658;85.326;2023-02-28T04:49:16;169.48;;;109.82;;
69203;SDS011;56317;27.658;85.326;2023-02-28T04:51:43;157.95;;;109.68;;
69203;SDS011;56317;27.658;85.326;2023-02-28T04:54:10;149.10;;;99.53;;
69203;SDS011;56317;27.658;85.326;2023-02-28T04:56:38;143.73;;;97.00;;
69203;SDS011;56317;27.658;85.326;2023-02-28T04:59:06;142.82;;;99.75;;
69203;SDS011;56317;27.658;85.326;2023-02-28T05:01:33;141.23;;;94.13;;
69203;SDS011;56317;27.658;85.326;2023-02-28T05:04:02;141.90;;;95.68;;
69203;SDS011;56317;27.658;85.326;2023-02-28T05:06:31;131.27;;;84.78;;
69203;SDS011;56317;27.658;85.326;2023-02-28T05:08:59;118.40;;;82.18;;
69203;SDS011;56317;27.658;85.326;2023-02-28T05:11:28;117.70;;;85.22;;
69203;SDS011;56317;27.658;85.326;2023-02-28T05:14:04;114.13;;;80.70;;
69203;SDS011;56317;27.658;85.326;2023-02-28T05:16:35;114.88;;;81.32;;
69203;SDS011;56317;27.658;85.326;2023-02-28T05:19:03;115.90;;;81.30;;
69203;SDS011;56317;27.658;85.326;2023-02-28T05:21:31;108.00;;;77.10;;
69203;SDS011;56317;27.658;85.326;2023-02-28T05:24:02;109.90;;;75.88;;
69203;SDS011;56317;27.658;85.326;2023-02-28T05:26:37;113.78;;;79.75;;
69203;SDS011;56317;27.658;85.326;2023-02-28T05:29:06;108.47;;;74.45;;
69203;SDS011;56317;27.658;85.326;2023-02-28T05:31:36;103.30;;;72.03;;
69203;SDS011;56317;27.658;85.326;2023-02-28T05:34:04;104.90;;;73.80;;
69203;SDS011;56317;27.658;85.326;2023-02-28T05:36:32;115.07;;;83.35;;
69203;SDS011;56317;27.658;85.326;2023-02-28T05:38:59;114.82;;;81.72;;
69203;SDS011;56317;27.658;85.326;2023-02-28T05:41:27;118.82;;;81.07;;
69203;SDS011;56317;27.658;85.326;2023-02-28T05:43:54;110.35;;;76.50;;
69203;SDS011;56317;27.658;85.326;2023-02-28T05:46:23;107.35;;;71.40;;
69203;SDS011;56317;27.658;85.326;2023-02-28T05:48:51;93.57;;;69.82;;
69203;SDS011;56317;27.658;85.326;2023-02-28T05:51:18;92.43;;;68.07;;
69203;SDS011;56317;27.658;85.326;2023-02-28T05:53:45;89.97;;;65.60;;
69203;SDS011;56317;27.658;85.326;2023-02-28T05:56:14;89.78;;;63.22;;
69203;SDS011;56317;27.658;85.326;2023-02-28T05:58:42;81.53;;;60.38;;
69203;SDS011;56317;27.658;85.326;2023-02-28T06:04:01;72.70;;;54.25;;
69203;SDS011;56317;27.658;85.326;2023-02-28T06:06:30;95.53;;;61.38;;
69203;SDS011;56317;27.658;85.326;2023-02-28T06:08:59;78.57;;;59.17;;
69203;SDS011;56317;27.658;85.326;2023-02-28T06:11:27;87.32;;;57.53;;
69203;SDS011;56317;27.658;85.326;2023-02-28T06:13:55;74.53;;;53.08;;
69203;SDS011;56317;27.658;85.326;2023-02-28T06:16:25;64.22;;;47.80;;
69203;SDS011;56317;27.658;85.326;2023-02-28T06:18:54;65.70;;;46.55;;
69203;SDS011;56317;27.658;85.326;2023-02-28T06:21:23;60.15;;;47.30;;
69203;SDS011;56317;27.658;85.326;2023-02-28T06:23:52;72.43;;;46.25;;
69203;SDS011;56317;27.658;85.326;2023-02-28T06:26:19;61.75;;;45.17;;
69203;SDS011;56317;27.658;85.326;2023-02-28T06:28:46;66.80;;;47.28;;
69203;SDS011;56317;27.658;85.326;2023-02-28T06:31:14;68.13;;;45.58;;
69203;SDS011;56317;27.658;85.326;2023-02-28T06:33:43;66.97;;;48.88;;
69203;SDS011;56317;27.658;85.326;2023-02-28T06:36:12;67.65;;;49.33;;
69203;SDS011;56317;27.658;85.326;2023-02-28T06:38:40;62.25;;;45.13;;
69203;SDS011;56317;27.658;85.326;2023-02-28T06:41:09;69.53;;;47.17;;
69203;SDS011;56317;27.658;85.326;2023-02-28T06:43:38;54.60;;;41.22;;
69203;SDS011;56317;27.658;85.326;2023-02-28T06:46:08;55.35;;;41.30;;
69203;SDS011;56317;27.658;85.326;2023-02-28T06:48:39;60.42;;;43.63;;
69203;SDS011;56317;27.658;85.326;2023-02-28T06:51:10;58.15;;;44.00;;
69203;SDS011;56317;27.658;85.326;2023-02-28T06:53:39;60.42;;;44.75;;
69203;SDS011;56317;27.658;85.326;2023-02-28T06:56:08;78.28;;;50.00;;
69203;SDS011;56317;27.658;85.326;2023-02-28T06:58:37;57.70;;;42.60;;
69203;SDS011;56317;27.658;85.326;2023-02-28T07:01:05;55.17;;;41.67;;
69203;SDS011;56317;27.658;85.326;2023-02-28T07:03:34;52.20;;;36.17;;
69203;SDS011;56317;27.658;85.326;2023-02-28T07:06:02;47.05;;;37.13;;
69203;SDS011;56317;27.658;85.326;2023-02-28T07:08:31;44.20;;;34.50;;
69203;SDS011;56317;27.658;85.326;2023-02-28T07:10:59;48.38;;;36.60;;
69203;SDS011;56317;27.658;85.326;2023-02-28T07:13:26;55.35;;;35.97;;
69203;SDS011;56317;27.658;85.326;2023-02-28T07:15:58;52.28;;;36.42;;
69203;SDS011;56317;27.658;85.326;2023-02-28T07:18:27;58.38;;;40.25;;
69203;SDS011;56317;27.658;85.326;2023-02-28T07:20:54;56.95;;;42.55;;
69203;SDS011;56317;27.658;85.326;2023-02-28T07:23:22;67.05;;;45.97;;
69203;SDS011;56317;27.658;85.326;2023-02-28T07:25:50;58.10;;;40.25;;
69203;SDS011;56317;27.658;85.326;2023-02-28T07:28:17;58.65;;;38.55;;
69203;SDS011;56317;27.658;85.326;2023-02-28T07:30:45;57.70;;;39.20;;
69203;SDS011;56317;27.658;85.326;2023-02-28T07:33:15;51.25;;;37.65;;
69203;SDS011;56317;27.658;85.326;2023-02-28T07:35:44;77.05;;;43.45;;
69203;SDS011;56317;27.658;85.326;2023-02-28T07:38:11;61.92;;;40.83;;
69203;SDS011;56317;27.658;85.326;2023-02-28T07:40:39;51.67;;;39.88;;
69203;SDS011;56317;27.658;85.326;2023-02-28T07:43:07;60.45;;;41.40;;
69203;SDS011;56317;27.658;85.326;2023-02-28T07:45:34;63.70;;;42.22;;
69203;SDS011;56317;27.658;85.326;2023-02-28T07:48:02;57.63;;;43.45;;
69203;SDS011;56317;27.658;85.326;2023-02-28T07:50:29;62.83;;;42.35;;
69203;SDS011;56317;27.658;85.326;2023-02-28T07:52:57;62.67;;;47.13;;
69203;SDS011;56317;27.658;85.326;2023-02-28T07:55:25;76.63;;;43.95;;
69203;SDS011;56317;27.658;85.326;2023-02-28T07:57:52;57.88;;;43.75;;
69203;SDS011;56317;27.658;85.326;2023-02-28T08:00:20;64.05;;;45.97;;
69203;SDS011;56317;27.658;85.326;2023-02-28T08:02:47;61.83;;;44.03;;
69203;SDS011;56317;27.658;85.326;2023-02-28T08:05:16;59.70;;;46.33;;
69203;SDS011;56317;27.658;85.326;2023-02-28T08:07:43;64.93;;;47.08;;
69203;SDS011;56317;27.658;85.326;2023-02-28T08:10:11;66.53;;;47.08;;
69203;SDS011;56317;27.658;85.326;2023-02-28T08:15:08;73.35;;;49.28;;
69203;SDS011;56317;27.658;85.326;2023-02-28T08:17:36;76.65;;;48.55;;
69203;SDS011;56317;27.658;85.326;2023-02-28T08:20:03;71.53;;;49.10;;
69203;SDS011;56317;27.658;85.326;2023-02-28T08:22:32;71.28;;;47.72;;
69203;SDS011;56317;27.658;85.326;2023-02-28T08:24:59;67.72;;;49.35;;
69203;SDS011;56317;27.658;85.326;2023-02-28T08:27:26;70.55;;;50.10;;
69203;SDS011;56317;27.658;85.326;2023-02-28T08:29:53;67.97;;;48.88;;
69203;SDS011;56317;27.658;85.326;2023-02-28T08:32:21;76.15;;;50.13;;
69203;SDS011;56317;27.658;85.326;2023-02-28T08:34:48;77.10;;;51.58;;
69203;SDS011;56317;27.658;85.326;2023-02-28T08:37:16;93.20;;;51.13;;
69203;SDS011;56317;27.658;85.326;2023-02-28T08:39:44;76.53;;;51.65;;
69203;SDS011;56317;27.658;85.326;2023-02-28T08:42:13;83.85;;;53.45;;
69203;SDS011;56317;27.658;85.326;2023-02-28T08:44:41;84.35;;;53.25;;
69203;SDS011;56317;27.658;85.326;2023-02-28T08:47:08;84.03;;;54.85;;
69203;SDS011;56317;27.658;85.326;2023-02-28T08:49:36;89.38;;;56.20;;
69203;SDS011;56317;27.658;85.326;2023-02-28T08:52:03;84.70;;;55.75;;
69203;SDS011;56317;27.658;85.326;2023-02-28T08:54:31;96.03;;;60.35;;
69203;SDS011;56317;27.658;85.326;2023-02-28T08:57:00;102.75;;;62.10;;
69203;SDS011;56317;27.658;85.326;2023-02-28T08:59:27;94.43;;;60.75;;
69203;SDS011;56317;27.658;85.326;2023-02-28T09:01:55;97.47;;;61.63;;
69203;SDS011;56317;27.658;85.326;2023-02-28T09:04:22;93.57;;;63.33;;
69203;SDS011;56317;27.658;85.326;2023-02-28T09:06:50;110.82;;;65.40;;
69203;SDS011;56317;27.658;85.326;2023-02-28T09:09:17;98.00;;;63.13;;
69203;SDS011;56317;27.658;85.326;2023-02-28T09:11:44;97.65;;;63.25;;
69203;SDS011;56317;27.658;85.326;2023-02-28T09:14:12;97.38;;;60.17;;
69203;SDS011;56317;27.658;85.326;2023-02-28T09:16:39;95.43;;;63.17;;
69203;SDS011;56317;27.658;85.326;2023-02-28T09:19:10;87.38;;;60.28;;
69203;SDS011;56317;27.658;85.326;2023-02-28T09:21:37;86.55;;;58.90;;
69203;SDS011;56317;27.658;85.326;2023-02-28T09:24:05;85.80;;;58.92;;
69203;SDS011;56317;27.658;85.326;2023-02-28T09:26:33;82.32;;;57.95;;
69203;SDS011;56317;27.658;85.326;2023-02-28T09:29:00;89.07;;;59.75;;
69203;SDS011;56317;27.658;85.326;2023-02-28T09:31:28;89.32;;;60.38;;
69203;SDS011;56317;27.658;85.326;2023-02-28T09:33:56;95.97;;;61.63;;
69203;SDS011;56317;27.658;85.326;2023-02-28T09:36:25;105.97;;;63.20;;
69203;SDS011;56317;27.658;85.326;2023-02-28T09:38:55;87.05;;;59.38;;
69203;SDS011;56317;27.658;85.326;2023-02-28T09:41:42;97.20;;;64.72;;
69203;SDS011;56317;27.658;85.326;2023-02-28T09:44:33;94.72;;;63.95;;
69203;SDS011;56317;27.658;85.326;2023-02-28T09:47:25;94.93;;;64.80;;
69203;SDS011;56317;27.658;85.326;2023-02-28T09:49:54;91.97;;;63.92;;
69203;SDS011;56317;27.658;85.326;2023-02-28T09:52:51;100.88;;;69.93;;
69203;SDS011;56317;27.658;85.326;2023-02-28T09:57:51;94.53;;;66.85;;
69203;SDS011;56317;27.658;85.326;2023-02-28T10:00:21;109.30;;;70.35;;
69203;SDS011;56317;27.658;85.326;2023-02-28T10:05:24;103.20;;;70.87;;
69203;SDS011;56317;27.658;85.326;2023-02-28T10:10:57;122.43;;;79.28;;
69203;SDS011;56317;27.658;85.326;2023-02-28T10:24:35;126.55;;;82.22;;
69203;SDS011;56317;27.658;85.326;2023-02-28T10:27:20;134.13;;;86.07;;
69203;SDS011;56317;27.658;85.326;2023-02-28T10:29:52;147.88;;;88.00;;
69203;SDS011;56317;27.658;85.326;2023-02-28T10:32:31;138.55;;;87.95;;
69203;SDS011;56317;27.658;85.326;2023-02-28T10:37:41;136.48;;;87.95;;
69203;SDS011;56317;27.658;85.326;2023-02-28T10:43:04;142.07;;;91.07;;
69203;SDS011;56317;27.658;85.326;2023-02-28T10:51:05;142.15;;;89.38;;
69203;SDS011;56317;27.658;85.326;2023-02-28T10:53:51;151.90;;;95.97;;
69203;SDS011;56317;27.658;85.326;2023-02-28T10:56:21;145.60;;;96.65;;
69203;SDS011;56317;27.658;85.326;2023-02-28T11:04:32;153.25;;;99.00;;
69203;SDS011;56317;27.658;85.326;2023-02-28T11:07:09;159.45;;;102.03;;
69203;SDS011;56317;27.658;85.326;2023-02-28T11:09:57;160.93;;;103.53;;
69203;SDS011;56317;27.658;85.326;2023-02-28T11:12:37;159.35;;;105.15;;
69203;SDS011;56317;27.658;85.326;2023-02-28T11:15:20;162.73;;;104.95;;
69203;SDS011;56317;27.658;85.326;2023-02-28T11:20:54;167.13;;;111.78;;
69203;SDS011;56317;27.658;85.326;2023-02-28T11:23:25;170.32;;;110.65;;
69203;SDS011;56317;27.658;85.326;2023-02-28T11:31:06;181.88;;;117.20;;
69203;SDS011;56317;27.658;85.326;2023-02-28T11:33:54;174.65;;;120.30;;
69203;SDS011;56317;27.658;85.326;2023-02-28T11:36:23;193.20;;;122.25;;
69203;SDS011;56317;27.658;85.326;2023-02-28T11:38:56;191.93;;;123.97;;
69203;SDS011;56317;27.658;85.326;2023-02-28T11:44:23;193.57;;;125.80;;
69203;SDS011;56317;27.658;85.326;2023-02-28T11:47:07;194.68;;;124.55;;
69203;SDS011;56317;27.658;85.326;2023-02-28T11:49:44;210.07;;;130.77;;
69203;SDS011;56317;27.658;85.326;2023-02-28T12:00:31;213.30;;;137.93;;
69203;SDS011;56317;27.658;85.326;2023-02-28T12:03:38;232.57;;;146.32;;
69203;SDS011;56317;27.658;85.326;2023-02-28T12:09:13;261.00;;;157.00;;
69203;SDS011;56317;27.658;85.326;2023-02-28T12:11:55;247.32;;;156.48;;
69203;SDS011;56317;27.658;85.326;2023-02-28T12:22:49;238.65;;;150.38;;
69203;SDS011;56317;27.658;85.326;2023-02-28T12:25:39;232.18;;;146.00;;
69203;SDS011;56317;27.658;85.326;2023-02-28T12:28:20;232.88;;;147.20;;
69203;SDS011;56317;27.658;85.326;2023-02-28T12:33:42;233.82;;;151.23;;
69203;SDS011;56317;27.658;85.326;2023-02-28T12:36:15;236.88;;;151.80;;
69203;SDS011;56317;27.658;85.326;2023-02-28T12:38:48;238.75;;;150.10;;
69203;SDS011;56317;27.658;85.326;2023-02-28T12:41:25;243.30;;;147.35;;
69203;SDS011;56317;27.658;85.326;2023-02-28T12:44:15;231.75;;;148.63;;
69203;SDS011;56317;27.658;85.326;2023-02-28T12:46:58;247.07;;;157.00;;
69203;SDS011;56317;27.658;85.326;2023-02-28T12:49:32;242.40;;;156.82;;
69203;SDS011;56317;27.658;85.326;2023-02-28T12:52:02;251.73;;;159.90;;
69203;SDS011;56317;27.658;85.326;2023-02-28T12:57:11;268.20;;;167.63;;
69203;SDS011;56317;27.658;85.326;2023-02-28T12:59:55;248.40;;;158.88;;
69203;SDS011;56317;27.658;85.326;2023-02-28T13:10:16;267.55;;;165.07;;
69203;SDS011;56317;27.658;85.326;2023-02-28T13:12:48;266.02;;;165.73;;
69203;SDS011;56317;27.658;85.326;2023-02-28T13:15:19;252.07;;;163.48;;
69203;SDS011;56317;27.658;85.326;2023-02-28T13:17:58;259.92;;;168.52;;
69203;SDS011;56317;27.658;85.326;2023-02-28T13:23:03;273.95;;;173.48;;
69203;SDS011;56317;27.658;85.326;2023-02-28T13:25:50;268.60;;;170.95;;
69203;SDS011;56317;27.658;85.326;2023-02-28T13:28:56;261.17;;;169.35;;
69203;SDS011;56317;27.658;85.326;2023-02-28T13:31:14;284.67;;;179.52;;
69203;SDS011;56317;27.658;85.326;2023-02-28T14:03:26;297.40;;;193.65;;
69203;SDS011;56317;27.658;85.326;2023-02-28T14:06:08;302.80;;;194.73;;
69203;SDS011;56317;27.658;85.326;2023-02-28T14:08:46;313.98;;;200.82;;
69203;SDS011;56317;27.658;85.326;2023-02-28T14:11:41;298.58;;;193.70;;
69203;SDS011;56317;27.658;85.326;2023-02-28T14:17:04;308.48;;;193.10;;
69203;SDS011;56317;27.658;85.326;2023-02-28T14:19:35;312.55;;;191.30;;
69203;SDS011;56317;27.658;85.326;2023-02-28T14:30:49;280.38;;;185.13;;
69203;SDS011;56317;27.658;85.326;2023-02-28T14:39:15;295.17;;;191.75;;
69203;SDS011;56317;27.658;85.326;2023-02-28T14:41:46;291.63;;;185.23;;
69203;SDS011;56317;27.658;85.326;2023-02-28T14:44:14;280.55;;;183.60;;
69203;SDS011;56317;27.658;85.326;2023-02-28T14:52:05;296.90;;;181.43;;
69203;SDS011;56317;27.658;85.326;2023-02-28T14:54:35;280.73;;;181.27;;
69203;SDS011;56317;27.658;85.326;2023-02-28T14:57:03;289.52;;;190.20;;
69203;SDS011;56317;27.658;85.326;2023-02-28T14:59:32;299.80;;;194.52;;
69203;SDS011;56317;27.658;85.326;2023-02-28T15:02:15;291.23;;;187.27;;
69203;SDS011;56317;27.658;85.326;2023-02-28T15:07:35;303.45;;;186.38;;
69203;SDS011;56317;27.658;85.326;2023-02-28T15:10:10;298.92;;;185.02;;
69203;SDS011;56317;27.658;85.326;2023-02-28T15:12:57;291.90;;;188.10;;
69203;SDS011;56317;27.658;85.326;2023-02-28T15:15:35;298.83;;;186.35;;
69203;SDS011;56317;27.658;85.326;2023-02-28T15:18:15;312.00;;;191.50;;
69203;SDS011;56317;27.658;85.326;2023-02-28T15:20:53;330.98;;;195.30;;
69203;SDS011;56317;27.658;85.326;2023-02-28T15:23:21;306.67;;;193.52;;
69203;SDS011;56317;27.658;85.326;2023-02-28T15:25:49;306.17;;;193.57;;
69203;SDS011;56317;27.658;85.326;2023-02-28T15:28:18;330.88;;;193.13;;
69203;SDS011;56317;27.658;85.326;2023-02-28T15:30:53;304.90;;;190.23;;
69203;SDS011;56317;27.658;85.326;2023-02-28T15:33:23;321.70;;;192.77;;
69203;SDS011;56317;27.658;85.326;2023-02-28T15:36:14;337.08;;;194.25;;
69203;SDS011;56317;27.658;85.326;2023-02-28T15:38:48;321.50;;;199.40;;
69203;SDS011;56317;27.658;85.326;2023-02-28T15:41:25;331.45;;;207.38;;
69203;SDS011;56317;27.658;85.326;2023-02-28T15:47:14;325.85;;;200.23;;
69203;SDS011;56317;27.658;85.326;2023-02-28T15:49:54;319.58;;;196.38;;
69203;SDS011;56317;27.658;85.326;2023-02-28T15:52:39;315.65;;;196.32;;
69203;SDS011;56317;27.658;85.326;2023-02-28T15:55:17;295.70;;;187.07;;
69203;SDS011;56317;27.658;85.326;2023-02-28T15:57:50;281.35;;;182.88;;
69203;SDS011;56317;27.658;85.326;2023-02-28T16:00:25;291.17;;;186.13;;
69203;SDS011;56317;27.658;85.326;2023-02-28T16:03:00;286.63;;;184.02;;
69203;SDS011;56317;27.658;85.326;2023-02-28T16:05:28;287.00;;;185.13;;
69203;SDS011;56317;27.658;85.326;2023-02-28T16:08:14;290.50;;;186.52;;
69203;SDS011;56317;27.658;85.326;2023-02-28T16:10:43;293.17;;;184.32;;
69203;SDS011;56317;27.658;85.326;2023-02-28T16:13:19;297.25;;;190.20;;
69203;SDS011;56317;27.658;85.326;2023-02-28T16:15:46;331.48;;;200.95;;
69203;SDS011;56317;27.658;85.326;2023-02-28T16:18:16;307.65;;;190.82;;
69203;SDS011;56317;27.658;85.326;2023-02-28T16:20:44;324.25;;;192.23;;
69203;SDS011;56317;27.658;85.326;2023-02-28T16:23:11;296.50;;;185.13;;
69203;SDS011;56317;27.658;85.326;2023-02-28T16:25:39;292.70;;;184.40;;
69203;SDS011;56317;27.658;85.326;2023-02-28T16:28:14;316.70;;;189.05;;
69203;SDS011;56317;27.658;85.326;2023-02-28T16:30:48;302.45;;;184.48;;
69203;SDS011;56317;27.658;85.326;2023-02-28T16:33:18;323.35;;;188.18;;
69203;SDS011;56317;27.658;85.326;2023-02-28T16:35:45;297.80;;;190.38;;
69203;SDS011;56317;27.658;85.326;2023-02-28T16:38:12;302.02;;;189.02;;
69203;SDS011;56317;27.658;85.326;2023-02-28T16:40:40;354.10;;;198.10;;
69203;SDS011;56317;27.658;85.326;2023-02-28T16:43:08;320.60;;;190.82;;
69203;SDS011;56317;27.658;85.326;2023-02-28T16:45:42;302.00;;;185.00;;
69203;SDS011;56317;27.658;85.326;2023-02-28T16:48:13;319.70;;;188.93;;
69203;SDS011;56317;27.658;85.326;2023-02-28T16:50:42;342.52;;;189.93;;
69203;SDS011;56317;27.658;85.326;2023-02-28T16:53:10;304.38;;;183.75;;
69203;SDS011;56317;27.658;85.326;2023-02-28T16:55:37;313.50;;;188.43;;
69203;SDS011;56317;27.658;85.326;2023-02-28T16:58:04;297.40;;;182.38;;
69203;SDS011;56317;27.658;85.326;2023-02-28T17:00:32;307.48;;;185.13;;
69203;SDS011;56317;27.658;85.326;2023-02-28T17:02:59;299.63;;;184.85;;
69203;SDS011;56317;27.658;85.326;2023-02-28T17:05:28;306.85;;;188.88;;
69203;SDS011;56317;27.658;85.326;2023-02-28T17:08:03;303.70;;;182.55;;
69203;SDS011;56317;27.658;85.326;2023-02-28T17:10:31;304.77;;;184.95;;
69203;SDS011;56317;27.658;85.326;2023-02-28T17:12:58;304.67;;;183.00;;
69203;SDS011;56317;27.658;85.326;2023-02-28T17:15:25;301.73;;;183.77;;
69203;SDS011;56317;27.658;85.326;2023-02-28T17:17:52;299.13;;;181.85;;
69203;SDS011;56317;27.658;85.326;2023-02-28T17:20:21;334.02;;;194.65;;
69203;SDS011;56317;27.658;85.326;2023-02-28T17:22:49;312.40;;;186.15;;
69203;SDS011;56317;27.658;85.326;2023-02-28T17:25:17;298.02;;;183.57;;
69203;SDS011;56317;27.658;85.326;2023-02-28T17:27:44;299.05;;;186.38;;
69203;SDS011;56317;27.658;85.326;2023-02-28T17:30:16;303.20;;;187.63;;
69203;SDS011;56317;27.658;85.326;2023-02-28T17:32:44;312.88;;;188.65;;
69203;SDS011;56317;27.658;85.326;2023-02-28T17:35:12;298.10;;;183.38;;
69203;SDS011;56317;27.658;85.326;2023-02-28T17:37:40;309.45;;;186.18;;